Time;durP1;ratioP1;P1;durP2;ratioP2;P2;SDS_P1;SDS_P2;PMS_P1;PMS_P2;Temp;Humidity;BMP_temperature;BMP_pressure;BME280_temperature;BME280_humidity;BME280_pressure;Samples;Min_cycle;Max_cycle;Signal;HPM_P1;HPM_P2
2023/03/29 00:01:16;;;;;;;2.03;1.27;;;;;;;7.66;53.52;101609.66;4993635;28;97250;-49
2023/03/29 00:03:44;;;;;;;1.93;1.27;;;;;;;7.68;53.34;101613.47;4994555;28;97240;-50
2023/03/29 00:06:14;;;;;;;4.60;1.50;;;;;;;7.68;53.05;101613.47;4995644;28;97532;-50
2023/03/29 00:08:41;;;;;;;2.03;1.13;;;;;;;7.65;53.21;101619.06;4998647;28;97398;-49
2023/03/29 00:11:07;;;;;;;6.57;1.33;;;;;;;7.66;53.53;101610.44;4997379;28;97625;-49
2023/03/29 00:13:33;;;;;;;4.03;1.87;;;;;;;7.64;53.44;101595.66;4994104;28;97174;-50
2023/03/29 00:15:59;;;;;;;3.40;1.63;;;;;;;7.60;53.48;101587.56;4994773;28;97393;-50
2023/03/29 00:18:24;;;;;;;1.50;1.40;;;;;;;7.59;53.59;101586.03;4994621;28;97293;-49
2023/03/29 00:20:54;;;;;;;1.83;1.40;;;;;;;7.58;53.86;101595.47;4995363;28;100982;-49
2023/03/29 00:23:21;;;;;;;1.30;1.20;;;;;;;7.54;54.02;101581.91;4993355;28;97234;-49
2023/03/29 00:25:47;;;;;;;2.33;1.40;;;;;;;7.52;53.55;101584.34;4992897;28;96637;-49
2023/03/29 00:28:13;;;;;;;2.93;1.30;;;;;;;7.50;54.01;101592.25;4995003;28;96976;-49
2023/03/29 00:30:39;;;;;;;1.20;1.07;;;;;;;7.52;53.88;101584.34;4995561;28;97333;-50
2023/03/29 00:33:04;;;;;;;4.80;1.33;;;;;;;7.53;53.68;101576.91;4993213;28;97361;-50
2023/03/29 00:35:30;;;;;;;2.30;1.17;;;;;;;7.53;53.69;101569.41;4993038;28;97401;-49
2023/03/29 00:37:56;;;;;;;5.70;3.10;;;;;;;7.53;53.91;101576.91;4997050;28;97491;-49
2023/03/29 00:40:21;;;;;;;10.23;3.80;;;;;;;7.54;53.77;101567.44;4994342;28;97663;-49
2023/03/29 00:42:47;;;;;;;4.00;3.00;;;;;;;7.54;53.56;101565.47;4995168;28;97186;-49
2023/03/29 00:45:21;;;;;;;4.30;2.80;;;;;;;7.52;53.96;101565.16;4992469;28;97762;-49
2023/03/29 00:48:01;;;;;;;3.17;2.13;;;;;;;7.50;54.49;101559.38;4992700;28;97011;-49
2023/03/29 00:50:38;;;;;;;2.70;1.67;;;;;;;7.48;54.02;101567.28;4995082;28;97370;-50
2023/03/29 00:53:11;;;;;;;5.33;1.60;;;;;;;7.47;54.11;101564.97;4995255;28;97753;-49
2023/03/29 00:56:16;;;;;;;2.03;1.50;;;;;;;7.47;54.17;101562.22;4995443;28;96961;-50
2023/03/29 00:58:48;;;;;;;2.17;1.23;;;;;;;7.45;53.80;101556.44;4994339;28;97086;-49
2023/03/29 01:01:18;;;;;;;1.20;1.10;;;;;;;7.45;53.79;101548.22;4994201;28;97382;-49
2023/03/29 01:03:56;;;;;;;1.10;1.00;;;;;;;7.44;54.27;101547.50;4992690;28;97230;-49
2023/03/29 01:06:25;;;;;;;3.53;1.20;;;;;;;7.41;53.68;101545.63;4995007;28;96961;-49
2023/03/29 01:09:00;;;;;;;1.73;1.30;;;;;;;7.39;53.96;101534.38;4995825;28;96635;-49
2023/03/29 01:11:36;;;;;;;1.40;1.30;;;;;;;7.37;54.13;101539.53;4995408;28;97178;-49
2023/03/29 01:14:10;;;;;;;2.50;1.60;;;;;;;7.34;54.37;101534.19;4995321;28;97207;-49
2023/03/29 01:16:39;;;;;;;4.23;1.20;;;;;;;7.29;53.99;101537.53;4995715;28;96976;-50
2023/03/29 01:19:07;;;;;;;3.10;1.00;;;;;;;7.24;53.98;101525.19;4993539;28;96982;-49
2023/03/29 01:21:48;;;;;;;1.80;1.13;;;;;;;7.20;54.42;101519.06;4994706;28;97301;-49
2023/03/29 01:24:40;;;;;;;1.70;1.27;;;;;;;7.16;54.74;101507.50;4995383;28;98426;-50
2023/03/29 01:27:30;;;;;;;0.83;0.83;;;;;;;7.13;54.65;101515.81;4994717;28;97164;-49
2023/03/29 01:30:00;;;;;;;6.57;1.57;;;;;;;7.09;54.70;101507.75;4995498;28;97121;-50
2023/03/29 01:32:36;;;;;;;4.60;1.23;;;;;;;7.10;54.66;101508.53;4995791;28;97026;-49
2023/03/29 01:35:10;;;;;;;3.17;1.00;;;;;;;7.10;54.43;101503.06;4992921;28;97391;-49
2023/03/29 01:37:46;;;;;;;1.27;0.90;;;;;;;7.08;54.32;101500.75;4996212;28;97398;-50
2023/03/29 01:40:12;;;;;;;1.10;1.00;;;;;;;7.05;54.43;101492.69;4995518;28;97078;-49
2023/03/29 01:42:43;;;;;;;1.30;0.90;;;;;;;7.04;54.26;101497.38;4992974;28;97280;-49
2023/03/29 01:45:23;;;;;;;2.40;1.07;;;;;;;7.01;54.90;101492.78;4992400;28;97627;-50
2023/03/29 01:48:09;;;;;;;2.50;1.07;;;;;;;7.00;54.90;101494.03;4994681;28;97258;-50
2023/03/29 01:50:34;;;;;;;0.93;0.70;;;;;;;6.97;54.25;101497.63;4993043;28;97260;-50
2023/03/29 01:53:21;;;;;;;3.30;1.10;;;;;;;6.95;54.89;101489.13;4991604;28;98441;-49
2023/03/29 01:55:54;;;;;;;3.03;1.00;;;;;;;6.95;54.91;101489.13;4993217;28;97268;-49
2023/03/29 01:58:25;;;;;;;3.37;1.33;;;;;;;6.94;54.64;101489.56;4994014;28;96772;-48
2023/03/29 02:00:54;;;;;;;2.93;1.10;;;;;;;6.92;54.40;101487.28;4993884;28;97635;-50
2023/03/29 02:03:23;;;;;;;1.83;1.27;;;;;;;6.91;54.82;101490.44;4994631;28;97051;-50
2023/03/29 02:05:50;;;;;;;1.70;1.07;;;;;;;6.90;54.76;101480.72;4992187;28;97694;-49
2023/03/29 02:08:16;;;;;;;0.93;0.80;;;;;;;6.87;54.81;101485.13;4994425;28;97151;-49
2023/03/29 02:10:43;;;;;;;1.30;0.83;;;;;;;6.84;54.92;101480.53;4991365;28;97144;-49
2023/03/29 02:13:08;;;;;;;1.00;0.90;;;;;;;6.82;54.80;101472.78;4989631;28;96978;-50
2023/03/29 02:15:33;;;;;;;1.50;0.90;;;;;;;6.80;54.87;101461.53;4994157;28;97202;-50
2023/03/29 02:17:59;;;;;;;1.57;0.90;;;;;;;6.79;54.82;101461.97;4991691;28;97045;-50
2023/03/29 02:20:32;;;;;;;2.07;1.20;;;;;;;6.76;55.35;101455.44;4993476;28;97361;-49
2023/03/29 02:23:03;;;;;;;1.10;1.00;;;;;;;6.76;54.90;101452.69;4991534;28;97755;-50
2023/03/29 02:25:29;;;;;;;4.53;1.60;;;;;;;6.77;54.79;101445.25;4993324;28;97788;-49
2023/03/29 02:27:55;;;;;;;2.37;1.07;;;;;;;6.79;54.89;101451.78;4992700;28;97131;-50
2023/03/29 02:30:24;;;;;;;1.80;1.13;;;;;;;6.79;55.06;101445.56;4990963;28;97061;-50
2023/03/29 02:33:00;;;;;;;1.50;0.90;;;;;;;6.82;55.48;101456.38;4993263;28;97512;-50
2023/03/29 02:35:33;;;;;;;0.77;0.77;;;;;;;6.81;55.40;101448.63;4993870;28;98419;-50
2023/03/29 02:38:01;;;;;;;6.10;1.23;;;;;;;6.82;54.62;101444.66;4993203;28;96685;-50
2023/03/29 02:40:28;;;;;;;2.03;1.10;;;;;;;6.80;55.11;101438.88;4994422;28;96730;-50
2023/03/29 02:42:56;;;;;;;2.80;0.97;;;;;;;6.81;55.39;101448.63;4991873;28;97310;-50
2023/03/29 02:45:24;;;;;;;0.80;0.73;;;;;;;6.83;55.10;101440.75;4991626;28;97232;-51
2023/03/29 02:47:53;;;;;;;6.13;0.90;;;;;;;6.85;55.19;101446.50;4992003;28;97083;-50
2023/03/29 02:50:19;;;;;;;0.80;0.80;;;;;;;6.86;55.30;101439.81;4995289;28;97133;-49
2023/03/29 02:52:53;;;;;;;2.17;0.93;;;;;;;6.84;55.84;101438.78;4992170;28;97134;-51
2023/03/29 02:55:23;;;;;;;1.10;1.00;;;;;;;6.84;55.79;101439.50;4992582;28;97727;-50
2023/03/29 02:57:49;;;;;;;2.20;0.80;;;;;;;6.83;55.00;101438.00;4990522;28;97354;-50
2023/03/29 03:00:18;;;;;;;3.27;1.20;;;;;;;6.84;55.21;101433.31;4992812;28;97012;-50
2023/03/29 03:02:45;;;;;;;1.47;0.97;;;;;;;6.82;55.25;101431.00;4991010;28;97313;-50
2023/03/29 03:05:10;;;;;;;1.47;0.80;;;;;;;6.81;55.69;101429.47;4992948;28;97247;-52
2023/03/29 03:07:39;;;;;;;1.13;1.00;;;;;;;6.78;55.49;101428.41;4995056;28;97603;-51
2023/03/29 03:10:06;;;;;;;1.30;1.20;;;;;;;6.77;55.23;101429.59;4991958;28;96831;-51
2023/03/29 03:12:31;;;;;;;4.53;0.90;;;;;;;6.75;55.44;101428.50;4992019;28;97154;-50
2023/03/29 03:14:57;;;;;;;1.63;0.80;;;;;;;6.71;55.60;101420.44;4990119;28;105735;-50
2023/03/29 03:17:23;;;;;;;3.27;1.00;;;;;;;6.69;55.28;101413.91;4989997;28;97597;-50
2023/03/29 03:19:48;;;;;;;1.50;0.93;;;;;;;6.68;55.35;101412.38;4991927;28;97109;-50
2023/03/29 03:22:14;;;;;;;1.87;0.80;;;;;;;6.63;55.42;101400.06;4992521;28;97006;-50
2023/03/29 03:24:39;;;;;;;1.40;1.10;;;;;;;6.60;55.34;101397.44;4994526;28;97490;-50
2023/03/29 03:27:05;;;;;;;1.33;1.23;;;;;;;6.55;55.46;101395.28;4992317;28;97200;-51
2023/03/29 03:29:30;;;;;;;1.33;1.00;;;;;;;6.52;55.55;101396.19;4998562;28;97029;-50
2023/03/29 03:31:55;;;;;;;1.57;0.90;;;;;;;6.50;55.56;101393.91;4995738;28;108958;-51
2023/03/29 03:34:21;;;;;;;1.53;0.83;;;;;;;6.46;55.60;101393.28;4994070;28;97150;-50
2023/03/29 03:36:46;;;;;;;1.13;0.90;;;;;;;6.44;55.62;101395.69;4995280;28;97017;-50
2023/03/29 03:39:13;;;;;;;1.70;1.00;;;;;;;6.40;55.82;101388.81;4997610;28;96935;-51
2023/03/29 03:41:38;;;;;;;1.10;0.90;;;;;;;6.34;55.60;101385.88;4994791;28;97057;-50
2023/03/29 03:44:04;;;;;;;1.40;0.80;;;;;;;6.31;55.97;101389.50;4997058;28;97026;-51
2023/03/29 03:46:30;;;;;;;2.40;0.73;;;;;;;6.30;55.73;101387.22;4997077;28;97176;-50
2023/03/29 03:48:56;;;;;;;1.77;0.90;;;;;;;6.31;56.04;101380.56;4995211;28;97213;-50
2023/03/29 03:51:21;;;;;;;2.40;1.00;;;;;;;6.32;55.82;101379.34;4993138;28;97735;-50
2023/03/29 03:53:46;;;;;;;2.97;1.00;;;;;;;6.32;56.09;101382.84;4995665;28;97148;-50
2023/03/29 03:56:12;;;;;;;2.10;1.20;;;;;;;6.34;55.93;101390.56;4995910;28;97147;-50
2023/03/29 03:58:38;;;;;;;2.73;1.50;;;;;;;6.34;56.29;101388.63;4993005;28;97186;-51
2023/03/29 04:01:04;;;;;;;1.30;1.20;;;;;;;6.37;55.68;101378.78;4997077;28;99004;-50
2023/03/29 04:03:30;;;;;;;2.70;1.60;;;;;;;6.35;56.16;101373.00;4991416;28;97026;-50
2023/03/29 04:05:59;;;;;;;1.27;1.17;;;;;;;6.37;56.33;101368.59;4997013;28;96898;-51
2023/03/29 04:08:25;;;;;;;0.93;0.93;;;;;;;6.39;56.16;101368.16;4996008;28;97267;-50
2023/03/29 04:10:59;;;;;;;1.27;1.20;;;;;;;6.39;56.55;101359.97;4993529;28;97292;-50
2023/03/29 04:13:25;;;;;;;1.80;1.37;;;;;;;6.40;56.36;101362.22;4995499;28;97735;-50
2023/03/29 04:15:54;;;;;;;0.83;0.80;;;;;;;6.41;56.22;101355.56;4994293;28;97618;-50
2023/03/29 04:18:20;;;;;;;1.57;1.03;;;;;;;6.41;56.17;101349.34;4997076;28;97379;-50
2023/03/29 04:20:46;;;;;;;0.90;0.90;;;;;;;6.42;56.37;101356.34;4994284;28;97335;-51
2023/03/29 04:23:12;;;;;;;3.37;1.00;;;;;;;6.45;56.66;101353.47;4995730;28;97042;-50
2023/03/29 04:25:37;;;;;;;0.93;0.87;;;;;;;6.49;56.23;101354.09;4992880;28;97348;-50
2023/03/29 04:28:03;;;;;;;1.20;1.10;;;;;;;6.51;56.51;101340.75;4996823;28;97509;-50
2023/03/29 04:30:29;;;;;;;2.33;0.90;;;;;;;6.54;56.36;101347.28;4994610;28;97082;-50
2023/03/29 04:32:54;;;;;;;1.03;1.03;;;;;;;6.56;56.41;101340.16;4994851;28;97131;-50
2023/03/29 04:35:19;;;;;;;1.30;1.10;;;;;;;6.59;56.42;101344.75;4995762;28;97230;-50
2023/03/29 04:37:45;;;;;;;2.50;1.30;;;;;;;6.64;56.52;101351.63;4994890;28;97412;-50
2023/03/29 04:40:13;;;;;;;1.87;1.33;;;;;;;6.68;56.51;101363.19;4994849;28;97814;-50
2023/03/29 04:42:41;;;;;;;1.10;1.00;;;;;;;6.72;56.55;101344.66;4995819;28;98368;-50
2023/03/29 04:45:07;;;;;;;1.37;1.10;;;;;;;6.76;56.79;101342.53;4995666;28;97051;-50
2023/03/29 04:47:34;;;;;;;1.23;1.03;;;;;;;6.80;56.57;101354.09;4996017;28;97320;-49
2023/03/29 04:50:00;;;;;;;1.10;1.03;;;;;;;6.80;56.60;101340.44;4994972;28;97871;-50
2023/03/29 04:52:26;;;;;;;1.40;1.30;;;;;;;6.86;56.78;101343.38;4995060;28;97158;-50
2023/03/29 04:54:51;;;;;;;1.67;1.50;;;;;;;6.88;56.99;101349.88;4993498;28;97045;-50
2023/03/29 04:57:16;;;;;;;2.07;1.60;;;;;;;6.90;56.66;101350.22;4995728;28;101077;-49
2023/03/29 04:59:42;;;;;;;3.10;1.20;;;;;;;6.92;56.47;101356.00;4995437;28;97332;-50
2023/03/29 05:02:07;;;;;;;1.43;1.33;;;;;;;6.93;56.67;101349.31;4995304;28;97131;-49
2023/03/29 05:04:32;;;;;;;1.30;1.20;;;;;;;6.92;56.86;101345.06;4996396;28;97105;-49
2023/03/29 05:06:58;;;;;;;1.70;1.40;;;;;;;6.94;57.06;101342.63;4997180;28;97355;-51
2023/03/29 05:09:24;;;;;;;2.20;1.60;;;;;;;6.95;56.33;101346.09;4994822;28;96995;-50
2023/03/29 05:11:50;;;;;;;1.50;1.40;;;;;;;6.93;56.66;101345.81;4995750;28;97206;-50
2023/03/29 05:14:16;;;;;;;1.47;1.37;;;;;;;6.92;56.71;101334.13;4996064;28;97566;-50
2023/03/29 05:16:41;;;;;;;1.37;1.20;;;;;;;6.93;57.11;101332.88;4994019;28;97181;-50
2023/03/29 05:19:08;;;;;;;1.50;1.40;;;;;;;6.97;56.65;101340.97;4994005;28;97162;-50
2023/03/29 05:21:34;;;;;;;1.27;1.17;;;;;;;6.99;56.65;101344.03;4995153;28;96950;-50
2023/03/29 05:23:59;;;;;;;1.97;1.60;;;;;;;6.99;56.99;101335.81;4997615;28;97196;-50
2023/03/29 05:26:25;;;;;;;2.20;1.50;;;;;;;7.01;56.75;101330.66;4994295;28;97172;-50
2023/03/29 05:28:51;;;;;;;1.83;1.70;;;;;;;7.02;56.89;101324.72;4996696;28;97122;-50
2023/03/29 05:31:17;;;;;;;1.40;1.27;;;;;;;7.06;56.94;101321.84;4994106;28;97432;-50
2023/03/29 05:33:42;;;;;;;1.10;1.10;;;;;;;7.07;56.99;101317.91;4993755;28;97145;-49
2023/03/29 05:36:12;;;;;;;1.20;1.10;;;;;;;7.08;57.21;101311.97;4995763;28;97026;-50
2023/03/29 05:38:39;;;;;;;1.23;1.13;;;;;;;7.09;57.19;101321.72;4988125;28;97327;-50
2023/03/29 05:41:05;;;;;;;2.23;1.23;;;;;;;7.13;57.15;101311.38;4994039;28;96621;-49
2023/03/29 05:43:31;;;;;;;1.37;1.27;;;;;;;7.18;57.33;101315.50;4994491;28;97268;-49
2023/03/29 05:45:57;;;;;;;1.40;1.30;;;;;;;7.22;56.98;101310.66;4994834;28;97389;-50
2023/03/29 05:48:23;;;;;;;1.67;1.57;;;;;;;7.26;57.23;101306.53;4997158;28;97247;-50
2023/03/29 05:50:51;;;;;;;1.40;1.30;;;;;;;7.31;57.12;101308.69;4992715;28;97656;-50
2023/03/29 05:53:17;;;;;;;1.70;1.60;;;;;;;7.35;57.20;101303.84;4994101;28;100043;-49
2023/03/29 05:55:42;;;;;;;3.03;1.30;;;;;;;7.39;56.93;101304.44;4993559;28;97140;-49
2023/03/29 05:58:09;;;;;;;1.57;1.47;;;;;;;7.44;56.95;101308.56;4990919;28;97348;-49
2023/03/29 06:00:36;;;;;;;1.10;1.00;;;;;;;7.49;57.36;101303.22;4993093;28;97078;-49
2023/03/29 06:03:02;;;;;;;1.70;1.60;;;;;;;7.54;57.37;101301.88;4993147;28;99915;-48
2023/03/29 06:05:28;;;;;;;2.40;1.30;;;;;;;7.60;57.28;101297.31;4994132;28;97467;-48
2023/03/29 06:07:53;;;;;;;3.43;2.00;;;;;;;7.66;57.58;101300.22;4991404;28;96885;-49
2023/03/29 06:10:19;;;;;;;2.97;1.40;;;;;;;7.73;57.53;101300.69;4992885;28;97181;-48
2023/03/29 06:12:45;;;;;;;1.37;1.27;;;;;;;7.80;57.28;101305.09;4994082;28;97365;-49
2023/03/29 06:15:12;;;;;;;1.40;1.27;;;;;;;7.85;57.25;101299.75;4993462;28;97278;-49
2023/03/29 06:17:38;;;;;;;1.67;1.03;;;;;;;7.92;57.37;101310.41;4994886;28;96980;-48
2023/03/29 06:20:09;;;;;;;1.53;1.43;;;;;;;7.97;57.42;101309.03;4994253;28;97184;-49
2023/03/29 06:22:36;;;;;;;1.83;1.33;;;;;;;8.03;57.37;101305.22;4994576;28;96774;-50
2023/03/29 06:25:03;;;;;;;2.27;1.53;;;;;;;8.07;57.61;101308.56;4993641;28;96910;-49
2023/03/29 06:27:28;;;;;;;1.30;1.20;;;;;;;8.12;57.34;101309.94;4994522;28;96613;-49
2023/03/29 06:29:53;;;;;;;1.47;1.37;;;;;;;8.20;57.23;101302.91;4991084;28;97215;-49
2023/03/29 06:32:19;;;;;;;3.40;1.77;;;;;;;8.25;57.36;101300.34;4993217;28;97073;-49
2023/03/29 06:34:44;;;;;;;1.53;1.43;;;;;;;8.32;57.38;101306.72;4993789;28;97369;-49
2023/03/29 06:37:09;;;;;;;1.37;1.27;;;;;;;8.35;57.31;101292.84;4994900;28;100069;-49
2023/03/29 06:39:35;;;;;;;1.70;1.60;;;;;;;8.36;57.59;101299.88;4995009;28;97330;-49
2023/03/29 06:42:00;;;;;;;1.50;1.00;;;;;;;8.43;57.65;101298.78;4992287;28;97177;-49
2023/03/29 06:44:27;;;;;;;1.60;1.30;;;;;;;8.49;57.59;101296.94;4991583;28;97229;-49
2023/03/29 06:46:53;;;;;;;4.10;1.80;;;;;;;8.54;57.56;101294.31;4994387;28;97682;-50
2023/03/29 06:49:18;;;;;;;1.80;1.70;;;;;;;8.60;57.53;101297.19;4991990;28;98195;-50
2023/03/29 06:51:43;;;;;;;2.97;2.30;;;;;;;8.66;57.64;101287.88;4995056;28;97065;-49
2023/03/29 06:54:09;;;;;;;3.30;2.30;;;;;;;8.77;57.42;101295.59;4991805;28;97425;-50
2023/03/29 06:56:34;;;;;;;3.43;2.30;;;;;;;8.90;57.74;101299.66;4995494;28;97329;-50
2023/03/29 06:58:59;;;;;;;4.30;2.77;;;;;;;9.06;57.49;101291.03;4994430;28;97440;-50
2023/03/29 07:01:25;;;;;;;2.53;2.33;;;;;;;9.22;57.28;101300.13;4999898;28;97055;-50
2023/03/29 07:03:51;;;;;;;3.40;2.63;;;;;;;9.34;57.14;101297.13;4993409;28;96866;-50
2023/03/29 07:06:19;;;;;;;4.60;2.80;;;;;;;9.42;57.10;101294.78;4997338;28;96874;-50
2023/03/29 07:08:49;;;;;;;3.10;2.80;;;;;;;9.50;57.10;101287.72;4997793;28;96998;-50
2023/03/29 07:11:15;;;;;;;2.60;2.23;;;;;;;9.58;57.10;101286.13;4996947;28;97280;-50
2023/03/29 07:13:41;;;;;;;3.17;2.87;;;;;;;9.70;56.92;101294.09;4993161;28;97190;-49
2023/03/29 07:16:11;;;;;;;2.90;2.43;;;;;;;9.81;56.79;101294.31;4994725;28;97180;-50
2023/03/29 07:18:40;;;;;;;6.33;2.60;;;;;;;9.88;56.73;101289.69;4995364;28;97380;-50
2023/03/29 07:21:07;;;;;;;3.10;2.77;;;;;;;9.93;56.80;101298.03;4997300;28;96986;-50
2023/03/29 07:23:32;;;;;;;5.47;2.60;;;;;;;9.97;56.78;101306.09;4995191;28;97010;-49
2023/03/29 07:25:58;;;;;;;2.73;2.53;;;;;;;10.01;56.52;101304.69;4997659;28;97375;-51
2023/03/29 07:28:23;;;;;;;2.77;2.57;;;;;;;10.10;56.70;101295.59;4999243;28;97490;-50
2023/03/29 07:30:48;;;;;;;4.17;2.50;;;;;;;10.17;56.67;101304.25;4995908;28;97494;-50
2023/03/29 07:33:14;;;;;;;4.90;2.50;;;;;;;10.22;56.51;101306.34;4997038;28;97460;-50
2023/03/29 07:35:42;;;;;;;3.87;2.30;;;;;;;10.26;56.35;101300.66;4993565;28;97833;-50
2023/03/29 07:38:08;;;;;;;4.10;2.67;;;;;;;10.20;56.46;101306.06;4992583;28;97594;-50
2023/03/29 07:40:33;;;;;;;1.93;1.83;;;;;;;10.26;56.51;101306.94;4994263;28;96965;-51
2023/03/29 07:42:58;;;;;;;3.30;2.60;;;;;;;10.35;56.47;101303.31;4993672;28;97591;-49
2023/03/29 07:45:27;;;;;;;4.30;2.53;;;;;;;10.41;56.44;101304.16;4994824;28;97646;-49
2023/03/29 07:47:55;;;;;;;3.03;2.67;;;;;;;10.44;56.30;101300.47;4995631;28;97147;-50
2023/03/29 07:50:21;;;;;;;3.23;2.70;;;;;;;10.51;56.43;101309.09;4996965;28;96785;-50
2023/03/29 07:52:47;;;;;;;2.50;2.40;;;;;;;10.55;56.24;101306.91;4994229;28;97241;-50
2023/03/29 07:55:13;;;;;;;2.67;2.47;;;;;;;10.61;56.20;101307.00;4998968;28;97144;-49
2023/03/29 07:57:39;;;;;;;3.27;2.33;;;;;;;10.62;56.19;101318.75;4993999;28;97036;-50
2023/03/29 08:00:15;;;;;;;2.30;2.17;;;;;;;10.70;56.06;101308.88;4995303;28;97165;-50
2023/03/29 08:02:42;;;;;;;7.00;2.30;;;;;;;10.73;55.97;101311.44;4997210;28;97273;-49
2023/03/29 08:05:08;;;;;;;2.40;2.20;;;;;;;10.75;56.02;101319.22;4994182;28;96995;-50
2023/03/29 08:07:34;;;;;;;2.43;2.30;;;;;;;10.82;56.00;101319.59;4996101;28;97200;-51
2023/03/29 08:09:59;;;;;;;2.50;2.30;;;;;;;10.90;55.95;101317.94;4988996;28;97097;-51
2023/03/29 08:12:25;;;;;;;4.50;3.10;;;;;;;11.00;55.77;101313.09;4996962;28;96873;-49
2023/03/29 08:14:50;;;;;;;4.37;2.97;;;;;;;11.04;55.78;101319.16;4993871;28;99897;-49
2023/03/29 08:17:15;;;;;;;3.47;2.77;;;;;;;11.08;55.55;101314.19;4995103;28;97514;-49
2023/03/29 08:19:41;;;;;;;2.80;2.60;;;;;;;11.12;55.73;101314.75;4996676;28;97558;-49
2023/03/29 08:22:06;;;;;;;4.33;2.70;;;;;;;11.13;55.70;101310.78;4992471;28;96924;-49
2023/03/29 08:24:32;;;;;;;2.00;1.90;;;;;;;11.14;55.52;101306.78;4996100;28;97279;-49
2023/03/29 08:26:57;;;;;;;2.33;2.20;;;;;;;11.16;55.47;101309.81;4995981;28;97346;-49
2023/03/29 08:29:23;;;;;;;2.43;2.23;;;;;;;11.21;55.53;101301.63;4996839;28;96876;-49
2023/03/29 08:31:49;;;;;;;2.63;2.43;;;;;;;11.35;55.47;101308.31;4993988;28;97094;-49
2023/03/29 08:34:14;;;;;;;2.27;2.07;;;;;;;11.39;55.33;101303.38;4994652;28;97335;-49
2023/03/29 08:36:40;;;;;;;2.23;2.03;;;;;;;11.41;55.34;101303.63;4995382;28;97672;-49
2023/03/29 08:39:06;;;;;;;2.30;2.20;;;;;;;11.52;55.19;101305.78;4995672;28;96728;-50
2023/03/29 08:42:13;;;;;;;2.50;2.30;;;;;;;11.64;54.63;101299.16;4998295;28;100833;-49
2023/03/29 08:44:47;;;;;;;2.40;2.20;;;;;;;11.72;55.06;101297.53;4959695;28;96920;-49
2023/03/29 08:47:17;;;;;;;2.23;2.03;;;;;;;11.83;55.04;101292.13;4992926;28;97254;-50
2023/03/29 08:49:49;;;;;;;2.20;2.00;;;;;;;11.96;54.77;101296.03;4994962;28;97111;-49
2023/03/29 08:52:39;;;;;;;3.97;2.90;;;;;;;12.04;54.11;101288.06;4997013;28;97012;-49
2023/03/29 08:55:12;;;;;;;2.40;2.20;;;;;;;12.11;54.60;101297.94;4996176;28;97874;-50
2023/03/29 08:57:47;;;;;;;2.07;1.83;;;;;;;12.12;54.27;101293.94;4994341;28;97198;-50
2023/03/29 09:00:33;;;;;;;3.17;1.70;;;;;;;12.22;54.59;101293.28;4996463;28;96968;-49
2023/03/29 09:03:01;;;;;;;2.30;2.10;;;;;;;12.34;54.40;101294.16;4992989;28;97151;-49
2023/03/29 09:05:32;;;;;;;1.80;1.70;;;;;;;12.45;54.47;101294.97;4993369;28;97719;-49
2023/03/29 09:07:57;;;;;;;2.50;2.30;;;;;;;12.54;54.33;101285.75;4996791;28;96849;-49
2023/03/29 09:10:34;;;;;;;3.70;1.90;;;;;;;12.62;53.71;101281.31;4994980;28;97204;-49
2023/03/29 09:13:17;;;;;;;2.00;1.90;;;;;;;12.66;52.64;101284.59;4995844;28;97497;-49
2023/03/29 09:15:55;;;;;;;2.10;1.90;;;;;;;12.67;53.97;101292.38;4995327;28;97403;-49
2023/03/29 09:18:50;;;;;;;2.40;2.20;;;;;;;12.79;53.27;101284.94;4994733;28;96662;-49
2023/03/29 09:21:28;;;;;;;1.90;1.70;;;;;;;12.89;53.51;101288.28;4991101;28;97260;-49
2023/03/29 09:24:15;;;;;;;1.87;1.77;;;;;;;12.87;53.44;101279.72;4993321;28;97013;-51
2023/03/29 09:26:47;;;;;;;2.33;2.10;;;;;;;12.98;53.53;101291.59;4994472;28;97410;-49
2023/03/29 09:29:12;;;;;;;1.90;1.50;;;;;;;13.14;53.75;101281.91;4993145;28;98510;-49
2023/03/29 09:31:43;;;;;;;2.20;1.60;;;;;;;13.31;53.41;101278.00;4994373;28;97075;-50
2023/03/29 09:34:19;;;;;;;1.50;1.40;;;;;;;13.46;53.26;101273.03;4992361;28;96769;-49
2023/03/29 09:37:10;;;;;;;2.50;2.30;;;;;;;13.45;52.64;101271.50;4996329;28;96839;-49
2023/03/29 09:39:37;;;;;;;3.20;2.03;;;;;;;13.51;53.25;101269.53;4993050;28;97435;-49
2023/03/29 09:42:08;;;;;;;1.60;1.50;;;;;;;13.49;52.71;101274.81;4994867;28;97293;-49
2023/03/29 09:44:56;;;;;;;2.20;2.00;;;;;;;13.56;52.29;101272.81;4996447;28;97324;-49
2023/03/29 09:47:28;;;;;;;2.43;2.00;;;;;;;13.61;53.01;101269.31;4991777;28;97322;-49
2023/03/29 09:50:01;;;;;;;2.60;1.80;;;;;;;13.63;52.83;101270.31;4994503;28;97279;-50
2023/03/29 09:52:27;;;;;;;1.93;1.77;;;;;;;13.48;52.97;101272.53;4995799;28;96981;-50
2023/03/29 09:54:52;;;;;;;4.60;1.70;;;;;;;13.28;53.23;101275.47;4993121;28;97571;-49
2023/03/29 09:57:19;;;;;;;2.40;2.20;;;;;;;13.20;53.59;101260.59;4992068;28;99015;-50
2023/03/29 09:59:47;;;;;;;2.47;2.27;;;;;;;13.23;53.70;101265.91;4991648;28;97192;-49
2023/03/29 10:02:13;;;;;;;2.27;2.10;;;;;;;13.32;53.61;101265.66;4994940;28;97230;-51
2023/03/29 10:04:41;;;;;;;2.27;2.03;;;;;;;13.44;53.73;101256.19;4992744;28;96861;-49
2023/03/29 10:07:07;;;;;;;2.60;2.30;;;;;;;13.54;53.54;101260.22;4992130;28;97284;-49
2023/03/29 10:09:33;;;;;;;1.80;1.70;;;;;;;13.68;53.60;101266.81;4994505;28;97181;-50
2023/03/29 10:12:04;;;;;;;2.93;2.23;;;;;;;13.74;53.38;101259.28;4993353;28;97380;-50
2023/03/29 10:14:30;;;;;;;2.20;2.10;;;;;;;13.58;53.22;101253.72;4993730;28;97178;-50
2023/03/29 10:16:56;;;;;;;2.13;1.90;;;;;;;13.53;53.55;101250.44;4992535;28;97717;-50
2023/03/29 10:19:33;;;;;;;2.40;2.20;;;;;;;13.49;53.60;101247.16;4990644;28;97125;-49
2023/03/29 10:22:01;;;;;;;5.40;3.33;;;;;;;13.36;53.60;101255.16;4993228;28;96878;-50
2023/03/29 10:24:27;;;;;;;2.33;2.23;;;;;;;13.22;53.59;101255.31;4989886;28;98658;-50
2023/03/29 10:26:57;;;;;;;3.27;2.63;;;;;;;13.15;53.89;101255.81;4994065;28;97355;-49
2023/03/29 10:29:24;;;;;;;2.33;2.23;;;;;;;13.10;54.04;101260.06;4992174;28;97242;-50
2023/03/29 10:31:50;;;;;;;2.57;2.37;;;;;;;13.13;54.08;101258.28;4990791;28;97523;-49
2023/03/29 10:34:16;;;;;;;2.90;2.37;;;;;;;13.09;53.93;101258.53;4993586;28;97115;-49
2023/03/29 10:36:52;;;;;;;3.03;2.23;;;;;;;13.04;54.23;101256.47;4995185;28;97074;-50
2023/03/29 10:39:18;;;;;;;5.83;3.00;;;;;;;12.98;54.19;101257.69;4991637;28;97307;-50
2023/03/29 10:41:44;;;;;;;3.03;2.30;;;;;;;12.99;54.41;101248.94;4991211;28;97219;-49
2023/03/29 10:44:29;;;;;;;3.17;2.73;;;;;;;12.97;54.04;101245.13;4999231;28;96884;-49
2023/03/29 10:46:55;;;;;;;2.70;2.50;;;;;;;12.98;54.43;101252.16;4995925;28;96766;-50
2023/03/29 10:49:22;;;;;;;2.37;2.27;;;;;;;12.99;54.44;101248.94;4993457;28;97135;-50
2023/03/29 10:51:49;;;;;;;2.27;2.17;;;;;;;13.04;54.41;101245.41;4995364;28;97293;-50
2023/03/29 10:54:20;;;;;;;2.50;2.30;;;;;;;13.04;54.28;101247.44;4994155;28;97758;-50
2023/03/29 10:56:57;;;;;;;2.10;2.00;;;;;;;13.03;54.43;101241.16;4993530;28;96717;-50
2023/03/29 10:59:27;;;;;;;3.37;2.30;;;;;;;13.05;54.46;101244.22;4992010;28;97303;-49
2023/03/29 11:02:14;;;;;;;2.57;2.37;;;;;;;13.05;54.74;101241.44;4994156;28;97582;-49
2023/03/29 11:05:09;;;;;;;2.40;2.13;;;;;;;13.06;54.67;101231.16;4990785;28;97229;-50
2023/03/29 11:07:55;;;;;;;2.50;2.10;;;;;;;13.00;55.03;101222.81;4994025;28;96952;-49
2023/03/29 11:10:54;;;;;;;2.30;2.20;;;;;;;13.06;55.35;101226.38;4992446;28;96919;-49
2023/03/29 11:13:50;;;;;;;2.10;2.00;;;;;;;13.24;55.27;101220.44;4994243;28;96983;-49
2023/03/29 11:16:44;;;;;;;2.90;2.40;;;;;;;13.43;54.99;101212.47;4994919;28;97570;-50
2023/03/29 11:19:35;;;;;;;2.93;2.17;;;;;;;13.59;54.96;101211.72;4990472;28;97028;-50
2023/03/29 11:22:04;;;;;;;2.53;2.33;;;;;;;13.70;54.78;101219.28;4992700;28;97666;-50
2023/03/29 11:24:48;;;;;;;4.13;2.90;;;;;;;13.73;54.55;101212.78;4994118;28;97185;-50
2023/03/29 11:27:33;;;;;;;3.57;2.70;;;;;;;13.71;54.50;101218.06;4991934;28;96954;-50
2023/03/29 11:30:25;;;;;;;3.53;2.27;;;;;;;13.64;54.61;101218.53;4991910;28;97519;-50
2023/03/29 11:33:00;;;;;;;2.70;2.50;;;;;;;13.53;54.68;101214.50;4989221;28;97082;-49
2023/03/29 11:35:32;;;;;;;3.23;2.50;;;;;;;13.48;54.89;101206.94;4992802;28;101957;-49
2023/03/29 11:38:11;;;;;;;2.33;2.13;;;;;;;13.59;55.21;101210.97;4993070;28;97172;-49
2023/03/29 11:40:38;;;;;;;2.40;2.30;;;;;;;13.65;54.99;101203.47;4991297;28;98134;-49